createdAt,value
2022-08-10T00:00:43.534Z,84.52
2022-08-10T00:01:43.561Z,84.42
2022-08-10T00:02:43.493Z,84.63
2022-08-10T00:03:43.486Z,84.63
2022-08-10T00:04:43.486Z,84.42
2022-08-10T00:05:52.579Z,84.93
2022-08-10T00:06:44.463Z,85.13
2022-08-10T00:07:43.465Z,84.97
2022-08-10T00:08:43.450Z,84.87
2022-08-10T00:09:50.886Z,84.87
2022-08-10T00:10:44.453Z,84.97
2022-08-10T00:11:43.425Z,84.97
2022-08-10T00:12:54.795Z,84.97
2022-08-10T00:13:44.400Z,85.38
2022-08-10T00:14:44.405Z,85.17
2022-08-10T00:15:52.868Z,85.17
2022-08-10T00:16:44.413Z,84.77
2022-08-10T00:17:43.379Z,84.77
2022-08-10T00:18:43.373Z,85.07
2022-08-10T00:20:02.988Z,85.38
2022-08-10T00:20:44.356Z,84.97
2022-08-10T00:21:43.375Z,85.07
2022-08-10T00:22:53.069Z,85.17
2022-08-10T00:23:44.338Z,85.78
2022-08-10T00:24:43.339Z,85.47
2022-08-10T00:25:44.324Z,86.02
2022-08-10T00:27:49.981Z,85.38
2022-08-10T00:28:01.227Z,85.58
2022-08-10T00:28:44.297Z,85.41
2022-08-10T00:29:43.293Z,85.38
2022-08-10T00:30:43.284Z,85.52
2022-08-10T00:31:56.000Z,85.21
2022-08-10T00:32:44.268Z,85.52
2022-08-10T00:33:43.262Z,85.72
2022-08-10T00:34:43.255Z,85.62
2022-08-10T00:35:43.240Z,85.82
2022-08-10T00:36:43.262Z,85.62
2022-08-10T00:37:43.220Z,85.96
2022-08-10T00:38:44.221Z,86.47
2022-08-10T00:39:43.232Z,86.68
2022-08-10T00:40:43.203Z,85.92
2022-08-10T00:41:43.222Z,86.88
2022-08-10T00:42:43.193Z,86.47
2022-08-10T00:43:43.184Z,86.57
2022-08-10T00:44:43.176Z,86.57
2022-08-10T00:45:43.168Z,86.57
2022-08-10T00:46:43.188Z,86.16
2022-08-10T00:47:43.144Z,86.68
2022-08-10T00:48:43.141Z,87.38
2022-08-10T00:49:43.132Z,86.37
2022-08-10T00:50:43.126Z,86.27
2022-08-10T00:51:48.491Z,87.29
2022-08-10T00:52:44.108Z,87.43
2022-08-10T00:53:43.099Z,87.38
2022-08-10T00:54:43.099Z,86.71
2022-08-10T00:57:14.094Z,87.84
2022-08-10T00:57:17.524Z,87.32
2022-08-10T00:57:44.076Z,87.23
2022-08-10T00:58:43.069Z,88.04
2022-08-10T00:59:57.784Z,88.04
2022-08-10T01:00:44.049Z,87.93
2022-08-10T01:02:09.402Z,87.12
2022-08-10T01:02:44.095Z,87.23
2022-08-10T01:04:54.201Z,87.12
2022-08-10T01:04:59.740Z,87.23
2022-08-10T01:05:51.316Z,87.32
2022-08-10T01:06:44.030Z,87.53
2022-08-10T01:07:42.989Z,87.12
2022-08-10T01:08:42.993Z,87.23
2022-08-10T01:09:42.979Z,87.12
2022-08-10T01:10:43.969Z,87.53
2022-08-10T01:12:39.223Z,87.53
2022-08-10T01:12:43.955Z,87.93
2022-08-10T01:13:42.960Z,87.53
2022-08-10T01:14:42.938Z,87.84
2022-08-10T01:15:42.933Z,87.87
2022-08-10T01:16:42.957Z,87.77
2022-08-10T01:17:49.708Z,87.87
2022-08-10T01:18:43.917Z,88.08
2022-08-10T01:19:42.897Z,88.04
2022-08-10T01:20:42.889Z,87.98
2022-08-10T01:21:50.532Z,88.39
2022-08-10T01:22:43.874Z,88.79
2022-08-10T01:23:42.866Z,88.39
2022-08-10T01:24:42.861Z,88.18
2022-08-10T01:26:11.415Z,89.20
2022-08-10T01:26:43.868Z,87.98
2022-08-10T01:27:42.835Z,88.89
2022-08-10T01:28:42.827Z,88.59
2022-08-10T01:29:42.819Z,88.73
2022-08-10T01:30:42.810Z,88.79
2022-08-10T01:31:42.831Z,88.89
2022-08-10T01:32:42.801Z,88.59
2022-08-10T01:33:58.811Z,88.59
2022-08-10T01:34:43.776Z,88.39
2022-08-10T01:35:42.770Z,88.63
2022-08-10T01:36:42.784Z,88.83
2022-08-10T01:37:42.755Z,88.28
2022-08-10T01:38:43.749Z,88.83
2022-08-10T01:39:42.776Z,89.14
2022-08-10T01:40:42.733Z,88.89
2022-08-10T01:41:46.039Z,88.73
2022-08-10T01:42:42.714Z,88.73
2022-08-10T01:43:42.717Z,89.00
2022-08-10T01:44:42.705Z,88.93
2022-08-10T01:45:45.246Z,88.79
2022-08-10T01:46:42.737Z,88.69
2022-08-10T01:47:42.675Z,88.83
2022-08-10T01:48:42.669Z,88.79
2022-08-10T01:49:42.668Z,88.83
2022-08-10T01:50:59.180Z,88.69
2022-08-10T01:51:43.669Z,88.69
2022-08-10T01:52:42.636Z,88.73
2022-08-10T01:53:42.628Z,88.73
2022-08-10T01:54:42.619Z,88.79
2022-08-10T01:55:42.613Z,88.83
2022-08-10T01:56:42.600Z,88.42
2022-08-10T01:57:42.627Z,88.53
2022-08-10T01:58:42.592Z,88.93
2022-08-10T01:59:42.576Z,88.83
2022-08-10T02:00:43.576Z,88.73
2022-08-10T02:01:42.608Z,88.73
2022-08-10T02:02:42.590Z,89.18
2022-08-10T02:04:03.785Z,88.93
2022-08-10T02:04:43.550Z,89.18
2022-08-10T02:05:42.536Z,89.28
2022-08-10T02:06:42.561Z,89.18
2022-08-10T02:07:42.520Z,89.07
2022-08-10T02:08:42.516Z,89.79
2022-08-10T02:09:42.508Z,89.69
2022-08-10T02:10:42.506Z,89.59
2022-08-10T02:12:05.702Z,89.07
2022-08-10T02:12:43.487Z,89.79
2022-08-10T02:13:42.475Z,89.89
2022-08-10T02:14:42.469Z,89.89
2022-08-10T02:16:01.671Z,89.89
2022-08-10T02:16:43.481Z,90.03
2022-08-10T02:17:58.092Z,90.34
2022-08-10T02:18:43.438Z,90.14
2022-08-10T02:19:42.429Z,90.24
2022-08-10T02:20:42.423Z,90.55
2022-08-10T02:22:36.658Z,90.14
2022-08-10T02:22:43.405Z,89.94
2022-08-10T02:23:42.403Z,90.03
2022-08-10T02:24:42.395Z,90.55
2022-08-10T02:25:43.874Z,90.14
2022-08-10T02:26:43.408Z,90.34
2022-08-10T02:27:42.371Z,90.44
2022-08-10T02:28:42.361Z,90.55
2022-08-10T02:29:42.617Z,90.34
2022-08-10T02:30:42.340Z,90.64
2022-08-10T02:31:42.365Z,90.34
2022-08-10T02:32:42.731Z,90.64
2022-08-10T02:33:45.586Z,90.34
2022-08-10T02:34:43.314Z,90.44
2022-08-10T02:35:55.261Z,90.64
2022-08-10T02:36:43.331Z,90.48
2022-08-10T02:37:42.291Z,90.85
2022-08-10T02:38:59.359Z,90.99
2022-08-10T02:39:43.344Z,90.69
2022-08-10T02:42:18.646Z,91.09
2022-08-10T02:45:14.338Z,90.89
2022-08-10T02:45:20.483Z,90.89
2022-08-10T02:45:24.327Z,90.89
2022-08-10T02:45:29.278Z,90.89
2022-08-10T02:45:44.228Z,90.89
2022-08-10T02:46:42.247Z,90.89
2022-08-10T02:47:51.772Z,90.89
2022-08-10T02:48:43.203Z,90.69
2022-08-10T02:49:42.194Z,90.69
2022-08-10T02:50:42.191Z,90.69
2022-08-10T02:52:07.888Z,90.18
2022-08-10T02:52:43.175Z,90.69
2022-08-10T02:53:56.511Z,90.83
2022-08-10T02:54:43.162Z,90.83
2022-08-10T02:55:42.153Z,90.73
2022-08-10T02:56:42.170Z,90.79
2022-08-10T02:58:17.453Z,90.89
2022-08-10T02:58:43.127Z,90.89
2022-08-10T02:59:42.112Z,90.48
2022-08-10T03:00:42.164Z,90.79
2022-08-10T03:01:42.128Z,90.48
2022-08-10T03:02:42.099Z,91.09
2022-08-10T03:03:42.082Z,90.83
2022-08-10T03:04:54.649Z,91.35
2022-08-10T03:05:43.067Z,92.05
2022-08-10T03:06:43.665Z,91.85
2022-08-10T03:07:43.515Z,91.85
2022-08-10T03:08:42.048Z,91.75
2022-08-10T03:09:43.038Z,91.75
2022-08-10T03:10:42.031Z,91.75
2022-08-10T03:12:35.595Z,92.16
2022-08-10T03:12:43.017Z,92.16
2022-08-10T03:13:42.011Z,92.16
2022-08-10T03:14:42.006Z,91.85
2022-08-10T03:15:41.991Z,91.85
2022-08-10T03:16:42.005Z,91.75
2022-08-10T03:17:41.979Z,91.79
2022-08-10T03:18:42.964Z,91.75
2022-08-10T03:20:35.109Z,91.96
2022-08-10T03:20:42.960Z,91.85
2022-08-10T03:21:41.973Z,91.96
2022-08-10T03:22:41.948Z,91.85
2022-08-10T03:23:41.931Z,92.41
2022-08-10T03:24:41.930Z,91.65
2022-08-10T03:25:52.925Z,92.30
2022-08-10T03:26:42.932Z,92.16
2022-08-10T03:27:41.896Z,92.00
2022-08-10T03:28:41.903Z,91.85
2022-08-10T03:30:23.190Z,91.75
2022-08-10T03:30:42.870Z,92.20
2022-08-10T03:31:41.892Z,91.44
2022-08-10T03:32:41.861Z,91.49
2022-08-10T03:33:41.851Z,91.49
2022-08-10T03:34:41.845Z,91.89
2022-08-10T03:35:41.837Z,91.89
2022-08-10T03:36:45.113Z,92.10
2022-08-10T03:37:42.827Z,92.20
2022-08-10T03:38:41.809Z,92.10
2022-08-10T03:39:41.850Z,92.30
2022-08-10T03:40:45.955Z,92.10
2022-08-10T03:41:41.818Z,92.10
2022-08-10T03:42:42.782Z,92.61
2022-08-10T03:43:41.780Z,92.50
2022-08-10T03:44:41.767Z,92.41
2022-08-10T03:45:48.572Z,92.41
2022-08-10T03:46:42.772Z,92.20
2022-08-10T03:47:41.744Z,92.10
2022-08-10T03:48:49.023Z,92.00
2022-08-10T03:49:42.722Z,92.30
2022-08-10T03:50:51.037Z,92.00
2022-08-10T03:51:42.732Z,92.00
2022-08-10T03:52:41.702Z,91.89
2022-08-10T03:54:04.567Z,92.10
2022-08-10T03:54:42.695Z,92.10
2022-08-10T03:56:30.420Z,92.30
2022-08-10T03:56:42.695Z,92.30
2022-08-10T03:57:49.231Z,92.50
2022-08-10T03:58:42.662Z,92.20
2022-08-10T03:59:41.649Z,92.81
2022-08-10T04:00:41.700Z,92.55
2022-08-10T04:02:45.054Z,92.61
2022-08-10T04:02:52.753Z,92.55
2022-08-10T04:03:42.619Z,92.65
2022-08-10T04:04:41.612Z,93.06
2022-08-10T04:05:41.604Z,92.81
2022-08-10T04:06:41.617Z,92.50
2022-08-10T04:07:41.583Z,92.96
2022-08-10T04:08:41.579Z,92.81
2022-08-10T04:09:54.614Z,92.61
2022-08-10T04:10:42.563Z,92.30
2022-08-10T04:11:41.580Z,92.10
2022-08-10T04:12:41.551Z,92.50
2022-08-10T04:13:41.546Z,91.59
2022-08-10T04:14:51.385Z,92.05
2022-08-10T04:15:42.525Z,91.55
2022-08-10T04:16:41.540Z,91.96
2022-08-10T04:17:56.782Z,91.75
2022-08-10T04:18:42.502Z,91.24
2022-08-10T04:19:41.491Z,90.79
2022-08-10T04:20:41.494Z,90.55
2022-08-10T04:21:41.502Z,89.24
2022-08-10T04:22:41.476Z,87.93
2022-08-10T04:23:41.462Z,86.27
2022-08-10T04:24:41.458Z,85.31
2022-08-10T04:25:41.442Z,83.54
2022-08-10T04:26:41.479Z,82.70
2022-08-10T04:27:41.436Z,82.05
2022-08-10T04:28:41.434Z,80.59
2022-08-10T04:29:41.413Z,81.06
2022-08-10T04:30:41.406Z,79.20
2022-08-10T04:31:41.514Z,79.16
2022-08-10T04:32:41.394Z,77.71
2022-08-10T04:33:41.379Z,77.37
2022-08-10T04:34:41.385Z,76.62
2022-08-10T04:35:41.373Z,75.37
2022-08-10T04:36:41.399Z,74.33
2022-08-10T04:37:47.401Z,73.79
2022-08-10T04:38:42.340Z,72.95
2022-08-10T04:39:41.396Z,72.20
2022-08-10T04:40:41.334Z,71.87
2022-08-10T04:41:41.479Z,70.93
2022-08-10T04:42:41.310Z,70.59
2022-08-10T04:43:41.308Z,69.25
2022-08-10T04:44:41.297Z,69.05
2022-08-10T04:45:49.123Z,68.51
2022-08-10T04:46:55.499Z,67.68
2022-08-10T04:47:57.387Z,66.74
2022-08-10T04:49:01.576Z,67.04
2022-08-10T04:49:56.034Z,66.31
2022-08-10T04:50:42.248Z,65.47
2022-08-10T04:51:41.241Z,64.97
2022-08-10T04:52:41.257Z,64.84
2022-08-10T04:54:04.248Z,64.40
2022-08-10T04:54:42.209Z,64.31
2022-08-10T04:55:41.204Z,62.97
2022-08-10T04:56:41.226Z,63.04
2022-08-10T04:57:41.201Z,62.61
2022-08-10T04:58:41.230Z,63.01
2022-08-10T04:59:41.177Z,62.48
2022-08-10T05:00:41.209Z,62.55
2022-08-10T05:02:22.896Z,62.15
2022-08-10T05:02:42.387Z,61.05
2022-08-10T05:04:36.185Z,61.02
2022-08-10T05:04:42.142Z,60.89
2022-08-10T05:05:41.133Z,59.27
2022-08-10T05:06:41.174Z,59.27
2022-08-10T05:07:53.967Z,59.47
2022-08-10T05:08:42.120Z,59.47
2022-08-10T05:10:02.109Z,58.94
2022-08-10T05:10:42.092Z,58.94
2022-08-10T05:11:41.113Z,58.21
2022-08-10T05:12:41.351Z,58.08
2022-08-10T05:13:41.077Z,56.79
2022-08-10T05:14:41.088Z,56.96
2022-08-10T05:15:41.050Z,56.73
2022-08-10T05:16:42.084Z,56.83
2022-08-10T05:17:41.047Z,56.88
2022-08-10T05:18:42.041Z,57.88
2022-08-10T05:20:03.336Z,57.78
2022-08-10T05:20:42.027Z,56.53
2022-08-10T05:22:02.505Z,56.70
2022-08-10T05:22:42.165Z,56.01
2022-08-10T05:23:41.007Z,55.98
2022-08-10T05:24:41.000Z,55.76
2022-08-10T05:25:40.990Z,54.96
2022-08-10T05:27:00.208Z,55.13
2022-08-10T05:27:42.976Z,54.01
2022-08-10T05:28:40.974Z,53.91
2022-08-10T05:29:40.947Z,53.49
2022-08-10T05:30:41.959Z,53.49
2022-08-10T05:31:40.972Z,53.58
2022-08-10T05:32:57.472Z,54.21
2022-08-10T05:33:41.932Z,54.01
2022-08-10T05:34:40.922Z,54.60
2022-08-10T05:35:57.717Z,54.50
2022-08-10T05:36:41.938Z,53.71
2022-08-10T05:38:09.349Z,54.08
2022-08-10T05:38:41.897Z,53.56
2022-08-10T05:39:40.912Z,53.06
2022-08-10T05:40:40.902Z,52.96
2022-08-10T05:41:45.343Z,53.69
2022-08-10T05:42:42.865Z,54.06
2022-08-10T05:43:40.867Z,53.86
2022-08-10T05:44:40.855Z,53.04
2022-08-10T05:46:16.810Z,52.74
2022-08-10T05:46:41.884Z,52.96
2022-08-10T05:48:55.624Z,53.46
2022-08-10T05:48:57.547Z,53.46
2022-08-10T05:49:41.823Z,53.01
2022-08-10T05:50:40.820Z,52.72
2022-08-10T05:51:40.838Z,53.11
2022-08-10T05:52:40.808Z,54.03
2022-08-10T05:54:01.106Z,53.44
2022-08-10T05:54:41.795Z,53.31
2022-08-10T05:55:40.797Z,53.01
2022-08-10T05:56:56.527Z,52.39
2022-08-10T05:57:41.774Z,52.39
2022-08-10T05:58:40.772Z,53.06
2022-08-10T06:00:33.149Z,51.37
2022-08-10T06:00:45.894Z,51.87
2022-08-10T06:01:42.774Z,52.79
2022-08-10T06:02:41.989Z,53.51
2022-08-10T06:03:40.733Z,54.03
2022-08-10T06:04:40.731Z,53.44
2022-08-10T06:05:40.727Z,53.51
2022-08-10T06:06:40.778Z,54.60
2022-08-10T06:07:40.714Z,54.05
2022-08-10T06:08:40.703Z,51.65
2022-08-10T06:09:59.214Z,51.35
2022-08-10T06:12:16.414Z,51.62
2022-08-10T06:12:23.691Z,51.72
2022-08-10T06:12:53.929Z,51.00
2022-08-10T06:14:12.582Z,51.50
2022-08-10T06:14:41.651Z,50.85
2022-08-10T06:15:50.881Z,50.16
2022-08-10T06:16:41.693Z,50.26
2022-08-10T06:17:40.643Z,49.91
2022-08-10T06:18:40.637Z,48.98
2022-08-10T06:19:40.634Z,48.54
2022-08-10T06:20:40.633Z,48.22
2022-08-10T06:21:40.644Z,48.02
2022-08-10T06:22:41.612Z,47.38
2022-08-10T06:23:40.605Z,47.28
2022-08-10T06:25:02.730Z,46.18
2022-08-10T06:26:11.422Z,45.78
2022-08-10T06:26:42.614Z,45.35
2022-08-10T06:27:40.580Z,45.27
2022-08-10T06:28:40.575Z,46.59
2022-08-10T06:29:40.572Z,45.78
2022-08-10T06:30:40.611Z,45.27
2022-08-10T06:31:48.089Z,45.56
2022-08-10T06:32:41.560Z,45.17
2022-08-10T06:33:40.548Z,46.18
2022-08-10T06:34:40.546Z,45.59
2022-08-10T06:35:40.539Z,45.07
2022-08-10T06:36:40.559Z,45.37
2022-08-10T06:37:40.526Z,44.73
2022-08-10T06:38:40.520Z,45.01
2022-08-10T06:39:40.592Z,44.10
2022-08-10T06:40:40.510Z,44.20
2022-08-10T06:42:14.249Z,43.80
2022-08-10T06:42:41.499Z,44.18
2022-08-10T06:43:40.492Z,43.57
2022-08-10T06:44:40.489Z,43.66
2022-08-10T06:45:40.486Z,42.96
2022-08-10T06:46:43.940Z,43.15
2022-08-10T06:47:41.471Z,43.52
2022-08-10T06:48:40.478Z,42.52
2022-08-10T06:49:40.457Z,42.62
2022-08-10T06:50:56.437Z,41.72
2022-08-10T06:51:41.472Z,40.64
2022-08-10T06:52:40.438Z,41.55
2022-08-10T06:53:54.388Z,41.42
2022-08-10T06:54:41.425Z,40.14
2022-08-10T06:55:55.584Z,40.64
2022-08-10T06:56:50.875Z,40.11
2022-08-10T06:57:42.411Z,42.06
2022-08-10T06:58:40.407Z,42.71
2022-08-10T06:59:40.405Z,42.76
2022-08-10T07:00:40.423Z,43.51
2022-08-10T07:01:40.422Z,42.35
2022-08-10T07:02:40.390Z,43.97
2022-08-10T07:03:40.383Z,45.06
2022-08-10T07:04:40.379Z,45.74
2022-08-10T07:05:40.370Z,48.70
2022-08-10T07:06:40.390Z,48.60
2022-08-10T07:07:40.359Z,48.63
2022-08-10T07:08:40.360Z,48.92
2022-08-10T07:09:40.346Z,48.80
2022-08-10T07:10:45.317Z,48.23
2022-08-10T07:11:41.355Z,49.24
2022-08-10T07:12:40.329Z,49.19
2022-08-10T07:14:14.131Z,48.58
2022-08-10T07:14:41.320Z,48.53
2022-08-10T07:15:59.238Z,50.11
2022-08-10T07:16:41.330Z,48.85
2022-08-10T07:17:40.300Z,49.54
2022-08-10T07:18:40.293Z,49.76
2022-08-10T07:19:49.489Z,49.12
2022-08-10T07:20:41.278Z,49.05
2022-08-10T07:21:40.298Z,49.10
2022-08-10T07:23:01.543Z,48.58
2022-08-10T07:23:58.743Z,48.18
2022-08-10T07:24:41.263Z,48.82
2022-08-10T07:25:40.256Z,50.01
2022-08-10T07:26:40.271Z,50.13
2022-08-10T07:27:59.095Z,49.22
2022-08-10T07:28:44.963Z,49.64
2022-08-10T07:29:54.456Z,49.62
2022-08-10T07:30:41.221Z,48.72
2022-08-10T07:31:56.221Z,49.42
2022-08-10T07:32:41.208Z,48.85
2022-08-10T07:33:40.202Z,49.71
2022-08-10T07:34:40.196Z,49.59
2022-08-10T07:35:42.577Z,49.59
2022-08-10T07:36:40.213Z,49.91
2022-08-10T07:37:40.175Z,50.93
2022-08-10T07:38:40.171Z,50.13
2022-08-10T07:40:03.679Z,48.92
2022-08-10T07:40:41.208Z,50.11
2022-08-10T07:41:40.673Z,49.71
2022-08-10T07:42:45.033Z,50.21
2022-08-10T07:43:42.133Z,50.88
2022-08-10T07:44:40.125Z,48.63
2022-08-10T07:45:40.122Z,48.48
2022-08-10T07:46:40.141Z,49.19
2022-08-10T07:47:46.200Z,49.10
2022-08-10T07:48:41.103Z,49.40
2022-08-10T07:49:40.094Z,49.71
2022-08-10T07:50:40.117Z,50.31
2022-08-10T07:51:40.106Z,49.59
2022-08-10T07:52:40.074Z,49.71
2022-08-10T07:53:40.068Z,49.74
2022-08-10T07:54:40.063Z,50.11
2022-08-10T07:56:01.851Z,50.41
2022-08-10T07:56:49.050Z,50.29
2022-08-10T07:57:42.045Z,51.42
2022-08-10T07:58:40.035Z,49.22
2022-08-10T07:59:41.030Z,48.61
2022-08-10T08:00:40.023Z,48.51
2022-08-10T08:01:40.134Z,48.46
2022-08-10T08:02:40.012Z,48.75
2022-08-10T08:03:40.006Z,49.25
2022-08-10T08:04:39.998Z,50.06
2022-08-10T08:05:58.197Z,49.42
2022-08-10T08:06:41.011Z,50.11
2022-08-10T08:07:39.980Z,50.48
2022-08-10T08:08:39.969Z,49.35
2022-08-10T08:09:39.959Z,48.83
2022-08-10T08:10:40.953Z,48.02
2022-08-10T08:11:39.971Z,47.57
2022-08-10T08:12:40.163Z,47.77
2022-08-10T08:13:39.937Z,47.72
2022-08-10T08:14:39.932Z,47.52
2022-08-10T08:16:20.344Z,46.81
2022-08-10T08:16:40.943Z,47.47
2022-08-10T08:17:39.914Z,47.65
2022-08-10T08:18:39.903Z,46.47
2022-08-10T08:19:46.190Z,46.76
2022-08-10T08:20:40.893Z,48.02
2022-08-10T08:24:04.352Z,47.60
2022-08-10T08:24:05.239Z,47.00
2022-08-10T08:24:09.206Z,46.17
2022-08-10T08:24:41.297Z,47.57
2022-08-10T08:25:39.850Z,47.94
2022-08-10T08:26:40.881Z,46.00
2022-08-10T08:27:39.847Z,46.61
2022-08-10T08:28:39.839Z,47.65
2022-08-10T08:29:39.834Z,46.19
2022-08-10T08:30:39.832Z,47.10
2022-08-10T08:32:01.153Z,49.30
2022-08-10T08:32:40.819Z,47.67
2022-08-10T08:33:42.529Z,46.09
2022-08-10T08:34:39.803Z,46.39
2022-08-10T08:35:39.795Z,47.55
2022-08-10T08:36:39.817Z,46.26
2022-08-10T08:38:32.683Z,45.85
2022-08-10T08:38:40.771Z,47.47
2022-08-10T08:39:39.805Z,47.50
2022-08-10T08:40:39.754Z,46.17
2022-08-10T08:41:40.781Z,45.16
2022-08-10T08:42:39.776Z,45.67
2022-08-10T08:43:39.758Z,45.48
2022-08-10T08:44:39.733Z,44.27
2022-08-10T08:45:48.116Z,45.53
2022-08-10T08:46:40.740Z,44.23
2022-08-10T08:48:03.178Z,45.90
2022-08-10T08:48:40.706Z,44.72
2022-08-10T08:50:07.559Z,44.13
2022-08-10T08:50:40.691Z,43.32
2022-08-10T08:52:07.869Z,44.70
2022-08-10T08:52:40.678Z,46.28
2022-08-10T08:54:01.741Z,44.80
2022-08-10T08:54:40.661Z,44.11
2022-08-10T08:56:04.768Z,43.82
2022-08-10T08:56:40.684Z,43.71
2022-08-10T08:57:49.861Z,44.26
2022-08-10T08:58:40.648Z,43.70
2022-08-10T08:59:39.627Z,43.52
2022-08-10T09:00:39.616Z,43.60
2022-08-10T09:01:41.248Z,44.40
2022-08-10T09:02:39.637Z,44.40
2022-08-10T09:03:39.627Z,44.74
2022-08-10T09:04:40.595Z,45.56
2022-08-10T09:05:58.433Z,45.34
2022-08-10T09:06:41.588Z,44.45
2022-08-10T09:08:01.494Z,45.08
2022-08-10T09:08:41.572Z,45.46
2022-08-10T09:09:39.569Z,45.28
2022-08-10T09:10:39.559Z,45.20
2022-08-10T09:11:39.551Z,45.42
2022-08-10T09:12:39.579Z,45.50
2022-08-10T09:13:39.586Z,47.23
2022-08-10T09:14:39.530Z,44.33
2022-08-10T09:15:41.484Z,44.01
2022-08-10T09:16:39.518Z,44.31
2022-08-10T09:17:39.539Z,42.79
2022-08-10T09:18:39.505Z,40.84
2022-08-10T09:19:39.523Z,41.06
2022-08-10T09:20:39.491Z,41.51
2022-08-10T09:21:43.377Z,42.30
2022-08-10T09:22:40.508Z,41.45
2022-08-10T09:24:02.140Z,42.61
2022-08-10T09:24:40.466Z,40.13
2022-08-10T09:25:39.459Z,40.31
2022-08-10T09:26:39.453Z,39.84
2022-08-10T09:27:39.472Z,42.34
2022-08-10T09:28:39.439Z,40.37
2022-08-10T09:29:39.436Z,42.26
2022-08-10T09:30:40.613Z,42.18
2022-08-10T09:31:39.455Z,42.97
2022-08-10T09:36:17.093Z,41.35
2022-08-10T09:36:19.324Z,41.38
2022-08-10T09:36:22.961Z,42.07
2022-08-10T09:36:27.001Z,40.37
2022-08-10T09:36:40.719Z,41.27
2022-08-10T09:38:00.908Z,41.27
2022-08-10T09:38:40.371Z,42.50
2022-08-10T09:40:56.112Z,42.00
2022-08-10T09:40:59.693Z,43.37
2022-08-10T09:41:40.418Z,43.64
2022-08-10T09:42:39.386Z,43.07
2022-08-10T09:43:39.339Z,42.18
2022-08-10T09:44:57.896Z,43.86
2022-08-10T09:45:40.323Z,43.17
2022-08-10T09:46:39.318Z,41.78
2022-08-10T09:48:01.166Z,41.20
2022-08-10T09:48:40.299Z,41.89
2022-08-10T09:49:56.400Z,42.10
2022-08-10T09:51:22.753Z,42.82
2022-08-10T09:51:45.794Z,43.43
2022-08-10T09:52:41.306Z,42.44
2022-08-10T09:53:39.264Z,43.77
2022-08-10T09:54:39.261Z,44.26
2022-08-10T09:56:17.409Z,42.60
2022-08-10T09:56:40.242Z,44.09
2022-08-10T09:57:44.724Z,44.56
2022-08-10T09:58:40.228Z,44.26
2022-08-10T10:00:01.417Z,43.96
2022-08-10T10:00:40.214Z,42.72
2022-08-10T10:02:03.869Z,44.10
2022-08-10T10:02:40.241Z,44.10
2022-08-10T10:03:39.268Z,43.80
2022-08-10T10:04:39.185Z,42.01
2022-08-10T10:05:39.176Z,41.61
2022-08-10T10:06:40.163Z,43.10
2022-08-10T10:07:39.183Z,41.89
2022-08-10T10:08:42.327Z,41.99
2022-08-10T10:09:40.144Z,41.99
2022-08-10T10:10:42.224Z,42.29
2022-08-10T10:11:40.127Z,42.78
2022-08-10T10:12:39.148Z,42.50
2022-08-10T10:13:49.180Z,42.58
2022-08-10T10:14:40.106Z,43.07
2022-08-10T10:15:39.099Z,43.79
2022-08-10T10:16:39.089Z,43.96
2022-08-10T10:17:39.110Z,44.46
2022-08-10T10:18:39.077Z,44.04
2022-08-10T10:19:40.968Z,42.76
2022-08-10T10:20:40.065Z,42.82
2022-08-10T10:21:51.380Z,43.82
2022-08-10T10:22:40.069Z,43.03
2022-08-10T10:23:39.047Z,42.74
2022-08-10T10:24:39.042Z,42.34
2022-08-10T10:25:50.021Z,42.46
2022-08-10T10:26:40.018Z,42.38
2022-08-10T10:27:39.219Z,43.98
2022-08-10T10:29:11.770Z,42.99
2022-08-10T10:29:57.612Z,44.20
2022-08-10T10:30:40.993Z,42.90
2022-08-10T10:31:38.981Z,44.78
2022-08-10T10:32:39.001Z,44.16
2022-08-10T10:33:38.967Z,43.87
2022-08-10T10:34:38.955Z,43.87
2022-08-10T10:35:38.952Z,42.78
2022-08-10T10:36:38.946Z,43.07
2022-08-10T10:38:01.003Z,42.97
2022-08-10T10:38:39.925Z,43.96
2022-08-10T10:39:39.011Z,43.07
2022-08-10T10:40:38.919Z,43.49
2022-08-10T10:41:55.949Z,43.17
2022-08-10T10:42:45.278Z,42.78
2022-08-10T10:43:40.888Z,42.78
2022-08-10T10:44:42.095Z,42.58
2022-08-10T10:45:49.951Z,42.58
2022-08-10T10:46:40.865Z,42.96
2022-08-10T10:47:38.886Z,43.84
2022-08-10T10:48:38.853Z,41.65
2022-08-10T10:49:38.857Z,41.47
2022-08-10T10:50:38.837Z,41.75
2022-08-10T10:51:38.826Z,41.43
2022-08-10T10:52:38.848Z,41.43
2022-08-10T10:53:38.811Z,42.69
2022-08-10T10:54:38.804Z,40.53
2022-08-10T10:55:50.024Z,42.10
2022-08-10T10:56:39.781Z,42.42
2022-08-10T10:58:00.348Z,42.05
2022-08-10T10:58:39.768Z,43.23
2022-08-10T10:59:56.290Z,41.87
2022-08-10T11:00:39.762Z,41.55
2022-08-10T11:01:38.830Z,41.95
2022-08-10T11:02:38.770Z,40.78
2022-08-10T11:03:38.734Z,42.36
2022-08-10T11:04:38.733Z,41.57
2022-08-10T11:05:38.717Z,39.00
2022-08-10T11:06:40.626Z,41.06
2022-08-10T11:07:39.729Z,39.78
2022-08-10T11:08:38.697Z,39.36
2022-08-10T11:10:03.401Z,38.47
2022-08-10T11:10:46.858Z,39.04
2022-08-10T11:12:01.672Z,38.54
2022-08-10T11:12:39.963Z,38.43
2022-08-10T11:14:24.500Z,37.61
2022-08-10T11:14:39.651Z,37.32
2022-08-10T11:15:42.818Z,38.20
2022-08-10T11:16:39.637Z,38.20
2022-08-10T11:17:38.656Z,39.52
2022-08-10T11:18:38.623Z,37.80
2022-08-10T11:20:02.179Z,38.04
2022-08-10T11:20:39.615Z,39.64
2022-08-10T11:21:38.607Z,38.82
2022-08-10T11:22:38.640Z,38.13
2022-08-10T11:23:38.582Z,39.78
2022-08-10T11:24:49.061Z,40.25
2022-08-10T11:25:39.568Z,38.47
2022-08-10T11:26:38.559Z,39.36
2022-08-10T11:27:38.658Z,40.15
2022-08-10T11:28:38.584Z,39.06
2022-08-10T11:29:42.553Z,39.99
2022-08-10T11:30:39.540Z,40.76
2022-08-10T11:31:38.525Z,40.27
2022-08-10T11:32:38.520Z,40.55
2022-08-10T11:34:03.834Z,38.87
2022-08-10T11:34:48.401Z,39.17
2022-08-10T11:35:39.494Z,39.04
2022-08-10T11:36:38.486Z,39.73
2022-08-10T11:38:30.099Z,40.23
2022-08-10T11:38:57.671Z,40.13
2022-08-10T11:39:49.398Z,38.77
2022-08-10T11:40:39.460Z,38.47
2022-08-10T11:42:08.767Z,39.28
2022-08-10T11:42:39.469Z,40.76
2022-08-10T11:43:38.439Z,38.51
2022-08-10T11:44:38.433Z,38.59
2022-08-10T11:45:38.460Z,37.82
2022-08-10T11:46:39.415Z,36.14
2022-08-10T11:47:38.420Z,36.04
2022-08-10T11:48:53.789Z,38.51
2022-08-10T11:49:39.388Z,38.20
2022-08-10T11:50:38.386Z,37.87
2022-08-10T11:51:38.377Z,37.57
2022-08-10T11:52:38.439Z,37.76
2022-08-10T11:53:38.995Z,37.35
2022-08-10T11:54:38.350Z,36.66
2022-08-10T11:55:38.344Z,35.99
2022-08-10T11:56:38.337Z,37.74
2022-08-10T11:57:54.714Z,37.26
2022-08-10T11:58:39.352Z,38.34
2022-08-10T11:59:38.317Z,37.87
2022-08-10T12:00:38.309Z,38.35
2022-08-10T12:01:38.303Z,39.06
2022-08-10T12:02:38.520Z,38.18
2022-08-10T12:03:38.288Z,38.28
2022-08-10T12:04:38.282Z,38.10
2022-08-10T12:05:51.936Z,37.41
2022-08-10T12:06:54.809Z,35.71
2022-08-10T12:10:04.072Z,38.54
2022-08-10T12:10:05.133Z,36.36
2022-08-10T12:10:08.870Z,35.28
2022-08-10T12:10:40.986Z,38.28
2022-08-10T12:11:39.226Z,37.78
2022-08-10T12:12:38.327Z,37.88
2022-08-10T12:13:38.216Z,37.96
2022-08-10T12:14:38.206Z,39.06
2022-08-10T12:15:38.199Z,38.59
2022-08-10T12:16:38.190Z,38.18
2022-08-10T12:17:38.218Z,38.37
2022-08-10T12:18:38.179Z,39.64
2022-08-10T12:19:59.055Z,39.44
2022-08-10T12:20:39.168Z,39.15
2022-08-10T12:21:38.158Z,38.65
2022-08-10T12:22:38.399Z,38.56
2022-08-10T12:23:39.399Z,38.45
2022-08-10T12:24:38.142Z,37.85
2022-08-10T12:25:57.066Z,38.24
2022-08-10T12:26:39.123Z,36.74
2022-08-10T12:27:38.114Z,37.05
2022-08-10T12:28:50.958Z,37.34
2022-08-10T12:29:39.563Z,37.34
2022-08-10T12:30:38.100Z,36.96
2022-08-10T12:31:38.113Z,36.48
2022-08-10T12:32:38.271Z,36.58
2022-08-10T12:34:02.041Z,35.30
2022-08-10T12:34:39.061Z,34.71
2022-08-10T12:35:38.056Z,36.68
2022-08-10T12:36:38.086Z,35.89
2022-08-10T12:37:38.042Z,38.35
2022-08-10T12:38:38.056Z,36.30
2022-08-10T12:39:38.075Z,36.99
2022-08-10T12:40:38.134Z,37.59
2022-08-10T12:41:44.336Z,37.59
2022-08-10T12:42:40.620Z,37.96
2022-08-10T12:44:05.614Z,37.07
2022-08-10T12:44:42.300Z,38.65
2022-08-10T12:45:37.985Z,38.16
2022-08-10T12:46:37.975Z,38.57
2022-08-10T12:47:37.968Z,37.87
2022-08-10T12:48:37.989Z,37.07
2022-08-10T12:49:37.956Z,38.16
2022-08-10T12:50:37.976Z,37.59
2022-08-10T12:51:37.936Z,38.18
2022-08-10T12:52:38.170Z,37.29